This is the latest recevied weather packets stored in our database for station/object KN6KS. If no packets are shown the sender has not sent any weather packets the latest 10 day(s).
| Time | Temp. | Humidity | Pressure | Rain* | Wind** | Luminosity | Snow |
|---|---|---|---|---|---|---|---|
| 1777674120 | 28.33° C | 23% | 1011.3 hPa | 0 mm | - | 618 W/m² | - |
| 1777673816 | 28.33° C | 23% | 1011.2 hPa | 0 mm | - | 628 W/m² | - |
| 1777673513 | 28.33° C | 23% | 1011.4 hPa | 0 mm | - | 618 W/m² | - |
| 1777673211 | 27.78° C | 22% | 1011.5 hPa | 0 mm | - | 194 W/m² | - |
| 1777672908 | 28.33° C | 20% | 1011.8 hPa | 0 mm | - | 141 W/m² | - |
| 1777672605 | 27.78° C | 19% | 1011.9 hPa | 0 mm | - | 635 W/m² | - |
| 1777672300 | 27.78° C | 21% | 1011.7 hPa | 0 mm | - | 115 W/m² | - |
| 1777671995 | 27.78° C | 19% | 1011.8 hPa | 0 mm | - | 106 W/m² | - |
| 1777671691 | 28.33° C | 20% | 1012 hPa | 0 mm | - | 117 W/m² | - |
| 1777671389 | 29.44° C | 18% | 1012 hPa | 0 mm | - | 684 W/m² | - |
| 1777671084 | 30° C | 17% | 1012 hPa | 0 mm | - | 709 W/m² | - |
| 1777670781 | 28.33° C | 18% | 1012 hPa | 0 mm | - | 698 W/m² | - |
| 1777670478 | 28.89° C | 17% | 1012 hPa | 0 mm | - | 690 W/m² | - |
| 1777670174 | 30° C | 17% | 1012 hPa | 0 mm | - | 688 W/m² | - |
| 1777669872 | 28.89° C | 17% | 1012.2 hPa | 0 mm | - | 713 W/m² | - |
| 1777669569 | 27.78° C | 18% | 1012.4 hPa | 0 mm | - | 704 W/m² | - |
| 1777669266 | 27.78° C | 18% | 1012.4 hPa | 0 mm | - | 704 W/m² | - |
| 1777668962 | 29.44° C | 17% | 1012.7 hPa | 0 mm | - | 720 W/m² | - |
| 1777668660 | 29.44° C | 17% | 1012.4 hPa | 0 mm | - | 713 W/m² | - |
| 1777668356 | 30.56° C | 17% | 1012.2 hPa | 0 mm | - | 714 W/m² | - |
| 1777668051 | 28.89° C | 18% | 1012.5 hPa | 0 mm | - | 700 W/m² | - |
| 1777658952 | 26.11° C | 23% | 1014.3 hPa | 0 mm | - | 733 W/m² | - |
| 1777658649 | 26.67° C | 23% | 1014.3 hPa | 0 mm | - | 737 W/m² | - |
| 1777658346 | 26.67° C | 21% | 1014.2 hPa | 0 mm | - | 766 W/m² | - |
| 1777658043 | 26.67° C | 22% | 1014.2 hPa | 0 mm | - | 769 W/m² | - |
* Rain latest hour (hover to see other rain measurements)
** Current wind speed in m/s (hover to see current wind gust speed)